<?xml version="1.0" encoding="UTF-8" standalone="no" ?>
<gpx xmlns="http://www.topografix.com/GPX/1/1" xmlns:xsi="http://www.w3.org/2001/XMLSchema-instance" xsi:schemaLocation="http://www.topografix.com/GPX/1/1 http://www.topografix.com/GPX/1/1/gpx.xsd" version="1.1" creator="VisuGPX - https://www.visugpx.com">
  <metadata>
    <name>Soustons 1</name>
    <desc><![CDATA[Cheminez sur la voie verte entre Soustons Lac et Soustons Plage, et découvrez 38 sculptures rêvées par les enfants de CM2 de l'Isle Verte et réalisées par des étudiants en BTS Chaudronnerie.]]></desc>
  </metadata>
  <trk>
    <name><![CDATA[Piste Cyclable Léon-Soustons – Azur Circuit à partir de Domaine du Lac]]></name>
    <extensions>
      <line xmlns="http://www.topografix.com/GPX/gpx_style/0/2">
        <color>0000FF</color>
        <width>4</width>
      </line>
    </extensions>
    <trkseg>
      <trkpt lat="43.85171" lon="-1.38594">
        <ele>14.441593</ele>
        <time>2021-08-15T12:41:37.263Z</time>
      </trkpt>
      <trkpt lat="43.85165" lon="-1.38542">
        <ele>14.441593</ele>
        <time>2021-08-15T12:41:52.261Z</time>
      </trkpt>
      <trkpt lat="43.8515" lon="-1.38528">
        <ele>14.441593</ele>
        <time>2021-08-15T12:41:58.626Z</time>
      </trkpt>
      <trkpt lat="43.85144" lon="-1.38522">
        <ele>14.441593</ele>
        <time>2021-08-15T12:42:01.372Z</time>
      </trkpt>
      <trkpt lat="43.8514" lon="-1.3852">
        <ele>14.441593</ele>
        <time>2021-08-15T12:42:02.776Z</time>
      </trkpt>
      <trkpt lat="43.85138" lon="-1.385">
        <ele>14.441593</ele>
        <time>2021-08-15T12:42:07.973Z</time>
      </trkpt>
      <trkpt lat="43.85129" lon="-1.38486">
        <ele>14.470819</ele>
        <time>2021-08-15T12:42:11.498Z</time>
      </trkpt>
      <trkpt lat="43.85127" lon="-1.38471">
        <ele>14.517152</ele>
        <time>2021-08-15T12:42:14.987Z</time>
      </trkpt>
      <trkpt lat="43.85126" lon="-1.38461">
        <ele>14.550408</ele>
        <time>2021-08-15T12:42:17.472Z</time>
      </trkpt>
      <trkpt lat="43.85124" lon="-1.38449">
        <ele>14.590175</ele>
        <time>2021-08-15T12:42:19.763Z</time>
      </trkpt>
      <trkpt lat="43.85122" lon="-1.38429">
        <ele>14.656004</ele>
        <time>2021-08-15T12:42:23.524Z</time>
      </trkpt>
      <trkpt lat="43.85122" lon="-1.38418">
        <ele>14.692948</ele>
        <time>2021-08-15T12:42:26.117Z</time>
      </trkpt>
      <trkpt lat="43.85126" lon="-1.38408">
        <ele>14.727547</ele>
        <time>2021-08-15T12:42:28.424Z</time>
      </trkpt>
      <trkpt lat="43.85124" lon="-1.38385">
        <ele>14.803156</ele>
        <time>2021-08-15T12:42:32.122Z</time>
      </trkpt>
      <trkpt lat="43.85113" lon="-1.38282">
        <ele>15.142178</ele>
        <time>2021-08-15T12:42:49.925Z</time>
      </trkpt>
      <trkpt lat="43.85107" lon="-1.38241">
        <ele>15.215928</ele>
        <time>2021-08-15T12:42:55.445Z</time>
      </trkpt>
      <trkpt lat="43.85101" lon="-1.38183">
        <ele>14.971053</ele>
        <time>2021-08-15T12:43:02.907Z</time>
      </trkpt>
      <trkpt lat="43.85082" lon="-1.38031">
        <ele>14.336308</ele>
        <time>2021-08-15T12:43:24.931Z</time>
      </trkpt>
      <trkpt lat="43.85083" lon="-1.37996">
        <ele>14.325771</ele>
        <time>2021-08-15T12:43:31.197Z</time>
      </trkpt>
      <trkpt lat="43.85092" lon="-1.37939">
        <ele>15.148931</ele>
        <time>2021-08-15T12:43:43.340Z</time>
      </trkpt>
      <trkpt lat="43.85118" lon="-1.37835">
        <ele>16.708955</ele>
        <time>2021-08-15T12:44:08.524Z</time>
      </trkpt>
      <trkpt lat="43.85132" lon="-1.37792">
        <ele>17.383609</ele>
        <time>2021-08-15T12:44:19.998Z</time>
      </trkpt>
      <trkpt lat="43.8513" lon="-1.37781">
        <ele>17.530899</ele>
        <time>2021-08-15T12:44:22.629Z</time>
      </trkpt>
      <trkpt lat="43.85122" lon="-1.37757">
        <ele>17.833454</ele>
        <time>2021-08-15T12:44:29.594Z</time>
      </trkpt>
      <trkpt lat="43.85123" lon="-1.37736">
        <ele>17.971105</ele>
        <time>2021-08-15T12:44:34.231Z</time>
      </trkpt>
      <trkpt lat="43.85128" lon="-1.37731">
        <ele>18.032377</ele>
        <time>2021-08-15T12:44:36.361Z</time>
      </trkpt>
      <trkpt lat="43.85133" lon="-1.37728">
        <ele>18.084218</ele>
        <time>2021-08-15T12:44:38.453Z</time>
      </trkpt>
      <trkpt lat="43.85148" lon="-1.37724">
        <ele>18.22017</ele>
        <time>2021-08-15T12:44:42.689Z</time>
      </trkpt>
      <trkpt lat="43.85157" lon="-1.37706">
        <ele>18.365662</ele>
        <time>2021-08-15T12:44:47.170Z</time>
      </trkpt>
      <trkpt lat="43.85161" lon="-1.377">
        <ele>18.42324</ele>
        <time>2021-08-15T12:44:49.134Z</time>
      </trkpt>
      <trkpt lat="43.85168" lon="-1.3767">
        <ele>18.628988</ele>
        <time>2021-08-15T12:44:55.076Z</time>
      </trkpt>
      <trkpt lat="43.85193" lon="-1.37572">
        <ele>19.320542</ele>
        <time>2021-08-15T12:45:12.095Z</time>
      </trkpt>
      <trkpt lat="43.85207" lon="-1.37523">
        <ele>19.250685</ele>
        <time>2021-08-15T12:45:19.850Z</time>
      </trkpt>
      <trkpt lat="43.85203" lon="-1.3752">
        <ele>19.22726</ele>
        <time>2021-08-15T12:45:20.508Z</time>
      </trkpt>
      <trkpt lat="43.85204" lon="-1.37476">
        <ele>19.037284</ele>
        <time>2021-08-15T12:45:27.263Z</time>
      </trkpt>
      <trkpt lat="43.85198" lon="-1.37455">
        <ele>18.940571</ele>
        <time>2021-08-15T12:45:30.396Z</time>
      </trkpt>
      <trkpt lat="43.85199" lon="-1.37447">
        <ele>18.906796</ele>
        <time>2021-08-15T12:45:31.404Z</time>
      </trkpt>
      <trkpt lat="43.852" lon="-1.37439">
        <ele>18.872432</ele>
        <time>2021-08-15T12:45:32.720Z</time>
      </trkpt>
      <trkpt lat="43.85205" lon="-1.37434">
        <ele>18.834509</ele>
        <time>2021-08-15T12:45:34.164Z</time>
      </trkpt>
      <trkpt lat="43.85209" lon="-1.37429">
        <ele>18.805259</ele>
        <time>2021-08-15T12:45:35.088Z</time>
      </trkpt>
      <trkpt lat="43.85203" lon="-1.37417">
        <ele>18.743995</ele>
        <time>2021-08-15T12:45:37.092Z</time>
      </trkpt>
      <trkpt lat="43.85192" lon="-1.37407">
        <ele>18.66039</ele>
        <time>2021-08-15T12:45:39.926Z</time>
      </trkpt>
      <trkpt lat="43.85174" lon="-1.37403">
        <ele>18.554549</ele>
        <time>2021-08-15T12:45:43.559Z</time>
      </trkpt>
      <trkpt lat="43.85081" lon="-1.37307">
        <ele>18.616716</ele>
        <time>2021-08-15T12:46:10.344Z</time>
      </trkpt>
      <trkpt lat="43.85043" lon="-1.37273">
        <ele>18.773135</ele>
        <time>2021-08-15T12:46:22.177Z</time>
      </trkpt>
      <trkpt lat="43.84988" lon="-1.37223">
        <ele>18.957396</ele>
        <time>2021-08-15T12:46:39.200Z</time>
      </trkpt>
      <trkpt lat="43.8497" lon="-1.37221">
        <ele>18.942061</ele>
        <time>2021-08-15T12:46:44.033Z</time>
      </trkpt>
      <trkpt lat="43.84939" lon="-1.37219">
        <ele>18.91586</ele>
        <time>2021-08-15T12:46:51.846Z</time>
      </trkpt>
      <trkpt lat="43.8493" lon="-1.37219">
        <ele>18.908882</ele>
        <time>2021-08-15T12:46:53.907Z</time>
      </trkpt>
      <trkpt lat="43.84822" lon="-1.3722">
        <ele>18.817662</ele>
        <time>2021-08-15T12:47:17.728Z</time>
      </trkpt>
      <trkpt lat="43.84794" lon="-1.37231">
        <ele>18.620778</ele>
        <time>2021-08-15T12:47:23.469Z</time>
      </trkpt>
      <trkpt lat="43.84745" lon="-1.3728">
        <ele>18.177778</ele>
        <time>2021-08-15T12:47:35.455Z</time>
      </trkpt>
      <trkpt lat="43.84733" lon="-1.37292">
        <ele>18.067554</ele>
        <time>2021-08-15T12:47:38.498Z</time>
      </trkpt>
      <trkpt lat="43.84715" lon="-1.373">
        <ele>17.92133</ele>
        <time>2021-08-15T12:47:42.622Z</time>
      </trkpt>
      <trkpt lat="43.84697" lon="-1.37307">
        <ele>17.784541</ele>
        <time>2021-08-15T12:47:46.468Z</time>
      </trkpt>
      <trkpt lat="43.84656" lon="-1.37313">
        <ele>17.484511</ele>
        <time>2021-08-15T12:47:55.158Z</time>
      </trkpt>
      <trkpt lat="43.84628" lon="-1.37316">
        <ele>17.586572</ele>
        <time>2021-08-15T12:48:01.194Z</time>
      </trkpt>
      <trkpt lat="43.84528" lon="-1.3734">
        <ele>17.953271</ele>
        <time>2021-08-15T12:48:26.033Z</time>
      </trkpt>
      <trkpt lat="43.84521" lon="-1.37341">
        <ele>17.980482</ele>
        <time>2021-08-15T12:48:27.843Z</time>
      </trkpt>
      <trkpt lat="43.84433" lon="-1.37412">
        <ele>16.2</ele>
      </trkpt>
      <trkpt lat="43.84268" lon="-1.37712">
        <ele>11.8</ele>
      </trkpt>
      <trkpt lat="43.84234" lon="-1.37972">
        <ele>15.5</ele>
      </trkpt>
      <trkpt lat="43.84143" lon="-1.3828">
        <ele>13.3</ele>
      </trkpt>
      <trkpt lat="43.84299" lon="-1.38579">
        <ele>6.9</ele>
        <time>2021-08-15T12:48:43.428Z</time>
      </trkpt>
      <trkpt lat="43.84167" lon="-1.38337">
        <ele>10</ele>
      </trkpt>
      <trkpt lat="43.84133" lon="-1.38276">
        <ele>13.5</ele>
        <time>2021-08-15T12:48:43.902Z</time>
      </trkpt>
      <trkpt lat="43.84167" lon="-1.38132">
        <ele>17.8</ele>
      </trkpt>
      <trkpt lat="43.84238" lon="-1.37953">
        <ele>15.6</ele>
      </trkpt>
      <trkpt lat="43.8425" lon="-1.37789">
        <ele>11.9</ele>
      </trkpt>
      <trkpt lat="43.84271" lon="-1.37696">
        <ele>11.6</ele>
      </trkpt>
      <trkpt lat="43.84445" lon="-1.37354">
        <ele>16.8</ele>
        <time>2021-08-15T12:48:45.616Z</time>
      </trkpt>
      <trkpt lat="43.84369" lon="-1.37116">
        <ele>20.560881</ele>
        <time>2021-08-15T12:49:44.064Z</time>
      </trkpt>
      <trkpt lat="43.84367" lon="-1.37097">
        <ele>20.64353</ele>
        <time>2021-08-15T12:49:47.860Z</time>
      </trkpt>
      <trkpt lat="43.84359" lon="-1.37078">
        <ele>20.740824</ele>
        <time>2021-08-15T12:49:52.224Z</time>
      </trkpt>
      <trkpt lat="43.84347" lon="-1.37077">
        <ele>20.808493</ele>
        <time>2021-08-15T12:49:55.646Z</time>
      </trkpt>
      <trkpt lat="43.84313" lon="-1.37023">
        <ele>21.117505</ele>
        <time>2021-08-15T12:50:08.894Z</time>
      </trkpt>
      <trkpt lat="43.84259" lon="-1.36954">
        <ele>20.773654</ele>
        <time>2021-08-15T12:50:25.117Z</time>
      </trkpt>
      <trkpt lat="43.8423" lon="-1.36911">
        <ele>20.132084</ele>
        <time>2021-08-15T12:50:33.277Z</time>
      </trkpt>
      <trkpt lat="43.84225" lon="-1.36904">
        <ele>20.022429</ele>
        <time>2021-08-15T12:50:34.447Z</time>
      </trkpt>
      <trkpt lat="43.84185" lon="-1.36801">
        <ele>18.728598</ele>
        <time>2021-08-15T12:50:50.284Z</time>
      </trkpt>
      <trkpt lat="43.84177" lon="-1.36767">
        <ele>18.284703</ele>
        <time>2021-08-15T12:50:54.783Z</time>
      </trkpt>
      <trkpt lat="43.8417" lon="-1.36724">
        <ele>17.695642</ele>
        <time>2021-08-15T12:51:00.528Z</time>
      </trkpt>
      <trkpt lat="43.84163" lon="-1.36681">
        <ele>17.106991</ele>
        <time>2021-08-15T12:51:06.213Z</time>
      </trkpt>
      <trkpt lat="43.84142" lon="-1.36621">
        <ele>16.204591</ele>
        <time>2021-08-15T12:51:15.072Z</time>
      </trkpt>
      <trkpt lat="43.84106" lon="-1.3655">
        <ele>15.210996</ele>
        <time>2021-08-15T12:51:27.092Z</time>
      </trkpt>
      <trkpt lat="43.84096" lon="-1.36526">
        <ele>15.16018</ele>
        <time>2021-08-15T12:51:31.302Z</time>
      </trkpt>
      <trkpt lat="43.8406" lon="-1.3645">
        <ele>14.994362</ele>
        <time>2021-08-15T12:51:45.419Z</time>
      </trkpt>
      <trkpt lat="43.84055" lon="-1.36449">
        <ele>14.979298</ele>
        <time>2021-08-15T12:51:46.827Z</time>
      </trkpt>
      <trkpt lat="43.84049" lon="-1.36446">
        <ele>14.964086</ele>
        <time>2021-08-15T12:51:48.309Z</time>
      </trkpt>
      <trkpt lat="43.84044" lon="-1.36439">
        <ele>14.945901</ele>
        <time>2021-08-15T12:51:49.990Z</time>
      </trkpt>
      <trkpt lat="43.8404" lon="-1.3643">
        <ele>14.927499</ele>
        <time>2021-08-15T12:51:51.580Z</time>
      </trkpt>
      <trkpt lat="43.84039" lon="-1.3642">
        <ele>14.909297</ele>
        <time>2021-08-15T12:51:53.162Z</time>
      </trkpt>
      <trkpt lat="43.8404" lon="-1.3641">
        <ele>14.890902</ele>
        <time>2021-08-15T12:51:54.835Z</time>
      </trkpt>
      <trkpt lat="43.84043" lon="-1.36402">
        <ele>14.873108</ele>
        <time>2021-08-15T12:51:56.587Z</time>
      </trkpt>
      <trkpt lat="43.84061" lon="-1.36389">
        <ele>14.82133</ele>
        <time>2021-08-15T12:52:01.176Z</time>
      </trkpt>
      <trkpt lat="43.84068" lon="-1.36391">
        <ele>14.803346</ele>
        <time>2021-08-15T12:52:02.780Z</time>
      </trkpt>
      <trkpt lat="43.84078" lon="-1.36391">
        <ele>14.791789</ele>
        <time>2021-08-15T12:52:05.222Z</time>
      </trkpt>
      <trkpt lat="43.84087" lon="-1.36388">
        <ele>14.837162</ele>
        <time>2021-08-15T12:52:07.376Z</time>
      </trkpt>
      <trkpt lat="43.84116" lon="-1.3637">
        <ele>14.985125</ele>
        <time>2021-08-15T12:52:14.664Z</time>
      </trkpt>
      <trkpt lat="43.84146" lon="-1.36343">
        <ele>15.15624</ele>
        <time>2021-08-15T12:52:23.086Z</time>
      </trkpt>
      <trkpt lat="43.84178" lon="-1.36314">
        <ele>15.337816</ele>
        <time>2021-08-15T12:52:31.940Z</time>
      </trkpt>
      <trkpt lat="43.84241" lon="-1.36259">
        <ele>15.783065</ele>
        <time>2021-08-15T12:52:50.361Z</time>
      </trkpt>
      <trkpt lat="43.84253" lon="-1.36249">
        <ele>15.977132</ele>
        <time>2021-08-15T12:52:54.301Z</time>
      </trkpt>
      <trkpt lat="43.84304" lon="-1.36207">
        <ele>16.775398</ele>
        <time>2021-08-15T12:53:12.321Z</time>
      </trkpt>
      <trkpt lat="43.84315" lon="-1.36199">
        <ele>16.936722</ele>
        <time>2021-08-15T12:53:15.840Z</time>
      </trkpt>
      <trkpt lat="43.84342" lon="-1.36174">
        <ele>17.380354</ele>
        <time>2021-08-15T12:53:25.520Z</time>
      </trkpt>
      <trkpt lat="43.84342" lon="-1.36168">
        <ele>17.4348</ele>
        <time>2021-08-15T12:53:26.645Z</time>
      </trkpt>
      <trkpt lat="43.84345" lon="-1.36161">
        <ele>17.512231</ele>
        <time>2021-08-15T12:53:28.142Z</time>
      </trkpt>
      <trkpt lat="43.84349" lon="-1.36158">
        <ele>17.569682</ele>
        <time>2021-08-15T12:53:29.347Z</time>
      </trkpt>
      <trkpt lat="43.84344" lon="-1.36146">
        <ele>17.700469</ele>
        <time>2021-08-15T12:53:31.503Z</time>
      </trkpt>
      <trkpt lat="43.8433" lon="-1.36105">
        <ele>18.093468</ele>
        <time>2021-08-15T12:53:39.827Z</time>
      </trkpt>
      <trkpt lat="43.8431" lon="-1.36048">
        <ele>18.393892</ele>
        <time>2021-08-15T12:53:51.498Z</time>
      </trkpt>
      <trkpt lat="43.84297" lon="-1.36014">
        <ele>18.574158</ele>
        <time>2021-08-15T12:53:57.908Z</time>
      </trkpt>
      <trkpt lat="43.84285" lon="-1.3598">
        <ele>18.752819</ele>
        <time>2021-08-15T12:54:05.771Z</time>
      </trkpt>
      <trkpt lat="43.84278" lon="-1.35983">
        <ele>18.796727</ele>
        <time>2021-08-15T12:54:06.898Z</time>
      </trkpt>
      <trkpt lat="43.84232" lon="-1.35972">
        <ele>19.101919</ele>
        <time>2021-08-15T12:54:19.430Z</time>
      </trkpt>
      <trkpt lat="43.8422" lon="-1.35955">
        <ele>19.213575</ele>
        <time>2021-08-15T12:54:23.745Z</time>
      </trkpt>
      <trkpt lat="43.84218" lon="-1.3594">
        <ele>19.390861</ele>
        <time>2021-08-15T12:54:25.586Z</time>
      </trkpt>
      <trkpt lat="43.84214" lon="-1.35841">
        <ele>20.690137</ele>
        <time>2021-08-15T12:54:42.105Z</time>
      </trkpt>
      <trkpt lat="43.84214" lon="-1.35823">
        <ele>20.933724</ele>
        <time>2021-08-15T12:54:47.566Z</time>
      </trkpt>
      <trkpt lat="43.84221" lon="-1.35725">
        <ele>22.22332</ele>
        <time>2021-08-15T12:55:10.427Z</time>
      </trkpt>
      <trkpt lat="43.84217" lon="-1.35718">
        <ele>22.349582</ele>
        <time>2021-08-15T12:55:13.944Z</time>
      </trkpt>
      <trkpt lat="43.8421" lon="-1.35714">
        <ele>22.489973</ele>
        <time>2021-08-15T12:55:16.199Z</time>
      </trkpt>
      <trkpt lat="43.84205" lon="-1.35713">
        <ele>22.617873</ele>
        <time>2021-08-15T12:55:17.776Z</time>
      </trkpt>
      <trkpt lat="43.84186" lon="-1.35645">
        <ele>23.931127</ele>
        <time>2021-08-15T12:55:44.359Z</time>
      </trkpt>
      <trkpt lat="43.84186" lon="-1.35645">
        <ele>23.931127</ele>
        <time>2021-08-15T12:55:44.526Z</time>
      </trkpt>
      <trkpt lat="43.84084" lon="-1.35706">
        <ele>26.735234</ele>
        <time>2021-08-15T12:56:21.029Z</time>
      </trkpt>
      <trkpt lat="43.84013" lon="-1.35749">
        <ele>26.508819</ele>
        <time>2021-08-15T12:56:39.649Z</time>
      </trkpt>
      <trkpt lat="43.83935" lon="-1.35794">
        <ele>25.826952</ele>
        <time>2021-08-15T12:56:54.915Z</time>
      </trkpt>
      <trkpt lat="43.83849" lon="-1.35845">
        <ele>24.409569</ele>
        <time>2021-08-15T12:57:10.849Z</time>
      </trkpt>
      <trkpt lat="43.83732" lon="-1.35913">
        <ele>22.3323</ele>
        <time>2021-08-15T12:57:33.430Z</time>
      </trkpt>
      <trkpt lat="43.83669" lon="-1.3594">
        <ele>22.722452</ele>
        <time>2021-08-15T12:57:48.634Z</time>
      </trkpt>
      <trkpt lat="43.83589" lon="-1.35955">
        <ele>23.208751</ele>
        <time>2021-08-15T12:58:10.944Z</time>
      </trkpt>
      <trkpt lat="43.83519" lon="-1.35952">
        <ele>24.027035</ele>
        <time>2021-08-15T12:58:31.224Z</time>
      </trkpt>
      <trkpt lat="43.83505" lon="-1.35953">
        <ele>24.233541</ele>
        <time>2021-08-15T12:58:35.562Z</time>
      </trkpt>
      <trkpt lat="43.835" lon="-1.35952">
        <ele>24.302348</ele>
        <time>2021-08-15T12:58:36.936Z</time>
      </trkpt>
      <trkpt lat="43.83404" lon="-1.35949">
        <ele>25.705152</ele>
        <time>2021-08-15T12:59:04.064Z</time>
      </trkpt>
      <trkpt lat="43.83285" lon="-1.35958">
        <ele>26.450945</ele>
        <time>2021-08-15T12:59:34.397Z</time>
      </trkpt>
      <trkpt lat="43.83251" lon="-1.3597">
        <ele>26.62224</ele>
        <time>2021-08-15T12:59:42.730Z</time>
      </trkpt>
      <trkpt lat="43.83067" lon="-1.36074">
        <ele>26.119087</ele>
        <time>2021-08-15T13:00:24.698Z</time>
      </trkpt>
      <trkpt lat="43.83045" lon="-1.36087">
        <ele>26.011811</ele>
        <time>2021-08-15T13:00:29.195Z</time>
      </trkpt>
      <trkpt lat="43.82999" lon="-1.36114">
        <ele>25.223574</ele>
        <time>2021-08-15T13:00:38.901Z</time>
      </trkpt>
      <trkpt lat="43.82573" lon="-1.36355">
        <ele>17.949378</ele>
        <time>2021-08-15T13:02:01.833Z</time>
      </trkpt>
      <trkpt lat="43.82469" lon="-1.36414">
        <ele>17.307962</ele>
        <time>2021-08-15T13:02:22.826Z</time>
      </trkpt>
      <trkpt lat="43.82415" lon="-1.36445">
        <ele>17.186889</ele>
        <time>2021-08-15T13:02:36.067Z</time>
      </trkpt>
      <trkpt lat="43.82319" lon="-1.365">
        <ele>17.912013</ele>
        <time>2021-08-15T13:03:05.167Z</time>
      </trkpt>
      <trkpt lat="43.82148" lon="-1.36592">
        <ele>19.026843</ele>
        <time>2021-08-15T13:03:55.004Z</time>
      </trkpt>
      <trkpt lat="43.81893" lon="-1.36739">
        <ele>16.322168</ele>
        <time>2021-08-15T13:04:45.637Z</time>
      </trkpt>
      <trkpt lat="43.8186" lon="-1.36748">
        <ele>16.198172</ele>
        <time>2021-08-15T13:04:52.505Z</time>
      </trkpt>
      <trkpt lat="43.81844" lon="-1.36753">
        <ele>16.252335</ele>
        <time>2021-08-15T13:04:55.751Z</time>
      </trkpt>
      <trkpt lat="43.8177" lon="-1.36766">
        <ele>16.514865</ele>
        <time>2021-08-15T13:05:12.836Z</time>
      </trkpt>
      <trkpt lat="43.81508" lon="-1.36814">
        <ele>19.038554</ele>
        <time>2021-08-15T13:06:24.508Z</time>
      </trkpt>
      <trkpt lat="43.81489" lon="-1.36811">
        <ele>19.180445</ele>
        <time>2021-08-15T13:06:29.357Z</time>
      </trkpt>
      <trkpt lat="43.81487" lon="-1.36812">
        <ele>19.199162</ele>
        <time>2021-08-15T13:06:30.226Z</time>
      </trkpt>
      <trkpt lat="43.81482" lon="-1.36813">
        <ele>19.232993</ele>
        <time>2021-08-15T13:06:31.674Z</time>
      </trkpt>
      <trkpt lat="43.81562" lon="-1.37527">
        <ele>13.6</ele>
      </trkpt>
      <trkpt lat="43.81569" lon="-1.37818">
        <ele>7.9</ele>
      </trkpt>
      <trkpt lat="43.81566" lon="-1.3794">
        <ele>8</ele>
      </trkpt>
      <trkpt lat="43.81599" lon="-1.38033">
        <ele>10.3</ele>
      </trkpt>
      <trkpt lat="43.81728" lon="-1.38358">
        <ele>22.8</ele>
      </trkpt>
      <trkpt lat="43.81728" lon="-1.38801">
        <ele>6.9</ele>
      </trkpt>
      <trkpt lat="43.8166" lon="-1.3915">
        <ele>6.5</ele>
      </trkpt>
      <trkpt lat="43.81561" lon="-1.39507">
        <ele>4.5</ele>
      </trkpt>
      <trkpt lat="43.81591" lon="-1.40265">
        <ele>11.2</ele>
      </trkpt>
      <trkpt lat="43.81589" lon="-1.39536">
        <ele>4</ele>
      </trkpt>
      <trkpt lat="43.81718" lon="-1.38916">
        <ele>10.8</ele>
      </trkpt>
      <trkpt lat="43.81751" lon="-1.38637">
        <ele>9.4</ele>
      </trkpt>
      <trkpt lat="43.81761" lon="-1.38372">
        <ele>22.9</ele>
      </trkpt>
      <trkpt lat="43.81639" lon="-1.38184">
        <ele>12.5</ele>
      </trkpt>
      <trkpt lat="43.81573" lon="-1.37952">
        <ele>8.2</ele>
      </trkpt>
      <trkpt lat="43.81584" lon="-1.37725">
        <ele>7.7</ele>
      </trkpt>
      <trkpt lat="43.8158" lon="-1.37592">
        <ele>11.4</ele>
      </trkpt>
      <trkpt lat="43.8157" lon="-1.3742">
        <ele>14.4</ele>
      </trkpt>
      <trkpt lat="43.8148" lon="-1.36814">
        <ele>19.251351</ele>
        <time>2021-08-15T13:06:32.594Z</time>
      </trkpt>
      <trkpt lat="43.81431" lon="-1.36826">
        <ele>19.62316</ele>
        <time>2021-08-15T13:06:45.891Z</time>
      </trkpt>
      <trkpt lat="43.81375" lon="-1.36848">
        <ele>20.055337</ele>
        <time>2021-08-15T13:07:00.800Z</time>
      </trkpt>
      <trkpt lat="43.8131" lon="-1.36891">
        <ele>19.369814</ele>
        <time>2021-08-15T13:07:16.108Z</time>
      </trkpt>
      <trkpt lat="43.8097" lon="-1.37228">
        <ele>11.014227</ele>
        <time>2021-08-15T13:08:27.500Z</time>
      </trkpt>
      <trkpt lat="43.80956" lon="-1.37236">
        <ele>10.74042</ele>
        <time>2021-08-15T13:08:30.480Z</time>
      </trkpt>
      <trkpt lat="43.80954" lon="-1.3724">
        <ele>10.684172</ele>
        <time>2021-08-15T13:08:30.941Z</time>
      </trkpt>
      <trkpt lat="43.80953" lon="-1.37245">
        <ele>10.623717</ele>
        <time>2021-08-15T13:08:31.649Z</time>
      </trkpt>
      <trkpt lat="43.80953" lon="-1.37249">
        <ele>10.565593</ele>
        <time>2021-08-15T13:08:32.321Z</time>
      </trkpt>
      <trkpt lat="43.80952" lon="-1.37254">
        <ele>10.507741</ele>
        <time>2021-08-15T13:08:32.842Z</time>
      </trkpt>
      <trkpt lat="43.80937" lon="-1.37259">
        <ele>10.246938</ele>
        <time>2021-08-15T13:08:35.768Z</time>
      </trkpt>
      <trkpt lat="43.80394" lon="-1.37796">
        <ele>9.247708</ele>
        <time>2021-08-15T13:11:04.551Z</time>
      </trkpt>
      <trkpt lat="43.8038" lon="-1.3781">
        <ele>9.183762</ele>
        <time>2021-08-15T13:11:07.949Z</time>
      </trkpt>
      <trkpt lat="43.80363" lon="-1.37829">
        <ele>9.104397</ele>
        <time>2021-08-15T13:11:12.520Z</time>
      </trkpt>
      <trkpt lat="43.8018" lon="-1.38008">
        <ele>7.342934</ele>
        <time>2021-08-15T13:11:56.171Z</time>
      </trkpt>
      <trkpt lat="43.80133" lon="-1.38055">
        <ele>6.955526</ele>
        <time>2021-08-15T13:12:07.580Z</time>
      </trkpt>
      <trkpt lat="43.80112" lon="-1.38073">
        <ele>6.790682</ele>
        <time>2021-08-15T13:12:12.494Z</time>
      </trkpt>
      <trkpt lat="43.80072" lon="-1.38102">
        <ele>6.494609</ele>
        <time>2021-08-15T13:12:21.629Z</time>
      </trkpt>
      <trkpt lat="43.7997" lon="-1.38162">
        <ele>6.233713</ele>
        <time>2021-08-15T13:12:44.336Z</time>
      </trkpt>
      <trkpt lat="43.79762" lon="-1.38284">
        <ele>7.075582</ele>
        <time>2021-08-15T13:13:39.229Z</time>
      </trkpt>
      <trkpt lat="43.7976" lon="-1.38285">
        <ele>7.090901</ele>
        <time>2021-08-15T13:13:40.126Z</time>
      </trkpt>
      <trkpt lat="43.79757" lon="-1.38286">
        <ele>7.107969</ele>
        <time>2021-08-15T13:13:41.102Z</time>
      </trkpt>
      <trkpt lat="43.79744" lon="-1.38292">
        <ele>7.191599</ele>
        <time>2021-08-15T13:13:44.306Z</time>
      </trkpt>
      <trkpt lat="43.79691" lon="-1.38339">
        <ele>7.56048</ele>
        <time>2021-08-15T13:14:00.218Z</time>
      </trkpt>
      <trkpt lat="43.79578" lon="-1.38471">
        <ele>7.880676</ele>
        <time>2021-08-15T13:14:34.265Z</time>
      </trkpt>
      <trkpt lat="43.79573" lon="-1.38477">
        <ele>7.895766</ele>
        <time>2021-08-15T13:14:35.715Z</time>
      </trkpt>
      <trkpt lat="43.79476" lon="-1.38587">
        <ele>8.084436</ele>
        <time>2021-08-15T13:15:03.785Z</time>
      </trkpt>
      <trkpt lat="43.7935" lon="-1.38729">
        <ele>8.133294</ele>
        <time>2021-08-15T13:15:41.724Z</time>
      </trkpt>
      <trkpt lat="43.79136" lon="-1.38996">
        <ele>7.156453</ele>
        <time>2021-08-15T13:16:41.985Z</time>
      </trkpt>
      <trkpt lat="43.79084" lon="-1.39065">
        <ele>6.499924</ele>
        <time>2021-08-15T13:16:55.391Z</time>
      </trkpt>
      <trkpt lat="43.79059" lon="-1.39099">
        <ele>6.183213</ele>
        <time>2021-08-15T13:17:01.978Z</time>
      </trkpt>
      <trkpt lat="43.79049" lon="-1.39111">
        <ele>6.059081</ele>
        <time>2021-08-15T13:17:04.511Z</time>
      </trkpt>
      <trkpt lat="43.78961" lon="-1.39217">
        <ele>5.802363</ele>
        <time>2021-08-15T13:17:28.917Z</time>
      </trkpt>
      <trkpt lat="43.78942" lon="-1.39239">
        <ele>5.855701</ele>
        <time>2021-08-15T13:17:34.946Z</time>
      </trkpt>
      <trkpt lat="43.78935" lon="-1.39247">
        <ele>5.874073</ele>
        <time>2021-08-15T13:17:36.847Z</time>
      </trkpt>
      <trkpt lat="43.78928" lon="-1.39256">
        <ele>5.895179</ele>
        <time>2021-08-15T13:17:39.650Z</time>
      </trkpt>
      <trkpt lat="43.78903" lon="-1.39287">
        <ele>5.966905</ele>
        <time>2021-08-15T13:17:48.146Z</time>
      </trkpt>
      <trkpt lat="43.78821" lon="-1.39382">
        <ele>6.134975</ele>
        <time>2021-08-15T13:18:14.991Z</time>
      </trkpt>
      <trkpt lat="43.78791" lon="-1.39418">
        <ele>6.188344</ele>
        <time>2021-08-15T13:18:23.897Z</time>
      </trkpt>
      <trkpt lat="43.7878" lon="-1.39429">
        <ele>6.206569</ele>
        <time>2021-08-15T13:18:26.741Z</time>
      </trkpt>
      <trkpt lat="43.78688" lon="-1.39499">
        <ele>5.914376</ele>
        <time>2021-08-15T13:18:48.210Z</time>
      </trkpt>
      <trkpt lat="43.78614" lon="-1.39534">
        <ele>5.384956</ele>
        <time>2021-08-15T13:19:03.785Z</time>
      </trkpt>
      <trkpt lat="43.7861" lon="-1.39535">
        <ele>5.360412</ele>
        <time>2021-08-15T13:19:04.466Z</time>
      </trkpt>
      <trkpt lat="43.78514" lon="-1.39571">
        <ele>5.173376</ele>
        <time>2021-08-15T13:19:24.115Z</time>
      </trkpt>
      <trkpt lat="43.78487" lon="-1.39582">
        <ele>5.228162</ele>
        <time>2021-08-15T13:19:30.284Z</time>
      </trkpt>
      <trkpt lat="43.7848" lon="-1.39584">
        <ele>5.243109</ele>
        <time>2021-08-15T13:19:31.977Z</time>
      </trkpt>
      <trkpt lat="43.78405" lon="-1.39614">
        <ele>5.396254</ele>
        <time>2021-08-15T13:19:51.628Z</time>
      </trkpt>
      <trkpt lat="43.78363" lon="-1.39625">
        <ele>5.923035</ele>
        <time>2021-08-15T13:20:02.945Z</time>
      </trkpt>
      <trkpt lat="43.78343" lon="-1.39631">
        <ele>6.25148</ele>
        <time>2021-08-15T13:20:08.945Z</time>
      </trkpt>
      <trkpt lat="43.7827" lon="-1.39632">
        <ele>7.4274</ele>
        <time>2021-08-15T13:20:30.014Z</time>
      </trkpt>
      <trkpt lat="43.78046" lon="-1.39627">
        <ele>11.208182</ele>
        <time>2021-08-15T13:21:37.976Z</time>
      </trkpt>
      <trkpt lat="43.77996" lon="-1.39626">
        <ele>11.109951</ele>
        <time>2021-08-15T13:21:49.723Z</time>
      </trkpt>
      <trkpt lat="43.77937" lon="-1.39618">
        <ele>10.698723</ele>
        <time>2021-08-15T13:22:01.547Z</time>
      </trkpt>
      <trkpt lat="43.77938" lon="-1.39676">
        <ele>10.407419</ele>
        <time>2021-08-15T13:22:09.966Z</time>
      </trkpt>
      <trkpt lat="43.77937" lon="-1.39697">
        <ele>10.302693</ele>
        <time>2021-08-15T13:22:12.871Z</time>
      </trkpt>
      <trkpt lat="43.77934" lon="-1.39735">
        <ele>10.051532</ele>
        <time>2021-08-15T13:22:18.154Z</time>
      </trkpt>
      <trkpt lat="43.77933" lon="-1.39747">
        <ele>9.857245</ele>
        <time>2021-08-15T13:22:19.710Z</time>
      </trkpt>
      <trkpt lat="43.77931" lon="-1.39758">
        <ele>9.653801</ele>
        <time>2021-08-15T13:22:21.235Z</time>
      </trkpt>
      <trkpt lat="43.77934" lon="-1.39764">
        <ele>9.539641</ele>
        <time>2021-08-15T13:22:22.097Z</time>
      </trkpt>
      <trkpt lat="43.77937" lon="-1.39777">
        <ele>9.31203</ele>
        <time>2021-08-15T13:22:23.782Z</time>
      </trkpt>
      <trkpt lat="43.77936" lon="-1.39783">
        <ele>9.197195</ele>
        <time>2021-08-15T13:22:24.554Z</time>
      </trkpt>
      <trkpt lat="43.77934" lon="-1.3979">
        <ele>9.083553</ele>
        <time>2021-08-15T13:22:25.377Z</time>
      </trkpt>
      <trkpt lat="43.77931" lon="-1.39795">
        <ele>8.969164</ele>
        <time>2021-08-15T13:22:26.183Z</time>
      </trkpt>
      <trkpt lat="43.77927" lon="-1.39799">
        <ele>8.856152</ele>
        <time>2021-08-15T13:22:26.952Z</time>
      </trkpt>
      <trkpt lat="43.77923" lon="-1.39801">
        <ele>8.755038</ele>
        <time>2021-08-15T13:22:27.659Z</time>
      </trkpt>
      <trkpt lat="43.77919" lon="-1.39802">
        <ele>8.655435</ele>
        <time>2021-08-15T13:22:28.377Z</time>
      </trkpt>
      <trkpt lat="43.77911" lon="-1.39815">
        <ele>8.359347</ele>
        <time>2021-08-15T13:22:30.413Z</time>
      </trkpt>
      <trkpt lat="43.77903" lon="-1.39865">
        <ele>7.493289</ele>
        <time>2021-08-15T13:22:36.412Z</time>
      </trkpt>
      <trkpt lat="43.77903" lon="-1.39912">
        <ele>6.69264</ele>
        <time>2021-08-15T13:22:42.228Z</time>
      </trkpt>
      <trkpt lat="43.77904" lon="-1.39952">
        <ele>6.016715</ele>
        <time>2021-08-15T13:22:47.340Z</time>
      </trkpt>
      <trkpt lat="43.77905" lon="-1.39972">
        <ele>5.844414</ele>
        <time>2021-08-15T13:22:50.133Z</time>
      </trkpt>
      <trkpt lat="43.779" lon="-1.39978">
        <ele>5.804875</ele>
        <time>2021-08-15T13:22:51.285Z</time>
      </trkpt>
      <trkpt lat="43.77892" lon="-1.39978">
        <ele>5.752587</ele>
        <time>2021-08-15T13:22:52.938Z</time>
      </trkpt>
      <trkpt lat="43.77886" lon="-1.39975">
        <ele>5.71273</ele>
        <time>2021-08-15T13:22:54.115Z</time>
      </trkpt>
      <trkpt lat="43.77884" lon="-1.39963">
        <ele>5.659219</ele>
        <time>2021-08-15T13:22:55.886Z</time>
      </trkpt>
      <trkpt lat="43.7787" lon="-1.39965">
        <ele>5.567951</ele>
        <time>2021-08-15T13:22:58.816Z</time>
      </trkpt>
      <trkpt lat="43.77833" lon="-1.39978">
        <ele>5.334864</ele>
        <time>2021-08-15T13:23:06.527Z</time>
      </trkpt>
      <trkpt lat="43.77819" lon="-1.39981">
        <ele>5.244095</ele>
        <time>2021-08-15T13:23:09.647Z</time>
      </trkpt>
      <trkpt lat="43.77804" lon="-1.39979">
        <ele>5.151735</ele>
        <time>2021-08-15T13:23:12.872Z</time>
      </trkpt>
      <trkpt lat="43.77772" lon="-1.40139">
        <ele>5.124018</ele>
        <time>2021-08-15T13:23:41.935Z</time>
      </trkpt>
    </trkseg>
  </trk>
</gpx>